Terminal Aerodrome Forecast
Issued by NWS

Home | Current Version | Previous Version | Text Only | Print | Product List | Glossary On
Versions: 1 2 3 4 5 6 7 8 9 10 11 12 13 14 15 16 17 18 19 20 21
000
FTUS43 KDLH 050531
TAFBRD
TAF
KBRD 050531Z 0506/0606 20004KT 5SM HZ SKC
     FM051300 17006KT P6SM VCSH FEW250
     FM051700 19009G20KT P6SM VCTS BKN050CB
     FM052000 18015G28KT P6SM VCTS SCT050CB
     FM060400 18005KT 3SM -TSRA OVC025CB=

USA.gov is the U.S. government's official web portal to all federal, state and local government web resources and services.